createdAt,value
2023-07-22T00:00:50.302Z,988.183
2023-07-22T00:02:50.137Z,988.094
2023-07-22T00:04:49.886Z,988.094
2023-07-22T00:06:49.551Z,987.979
2023-07-22T00:08:50.173Z,987.972
2023-07-22T00:10:49.790Z,988.032
2023-07-22T00:12:49.399Z,988.104
2023-07-22T00:14:49.958Z,988.070
2023-07-22T00:16:49.638Z,988.040
2023-07-22T00:18:50.311Z,988.061
2023-07-22T00:20:49.987Z,988.041
2023-07-22T00:22:49.634Z,988.012
2023-07-22T00:24:50.431Z,988.068
2023-07-22T00:26:50.159Z,988.120
2023-07-22T00:28:49.854Z,988.040
2023-07-22T00:30:49.553Z,988.052
2023-07-22T00:32:50.377Z,988.019
2023-07-22T00:34:49.370Z,988.010
2023-07-22T00:36:49.945Z,987.982
2023-07-22T00:38:49.586Z,987.970
2023-07-22T00:40:50.233Z,987.911
2023-07-22T00:42:49.818Z,987.970
2023-07-22T00:44:49.432Z,987.970
2023-07-22T00:46:50.183Z,987.991
2023-07-22T00:48:49.811Z,987.898
2023-07-22T00:50:49.428Z,987.852
2023-07-22T00:52:50.001Z,987.867
2023-07-22T00:54:49.652Z,987.873
2023-07-22T00:56:50.260Z,987.817
2023-07-22T00:58:49.902Z,987.802
2023-07-22T01:00:49.614Z,987.770
2023-07-22T01:02:50.414Z,987.813
2023-07-22T01:04:50.290Z,987.817
2023-07-22T01:06:49.910Z,987.841
2023-07-22T01:08:49.537Z,987.839
2023-07-22T01:10:50.205Z,987.815
2023-07-22T01:12:49.816Z,987.815
2023-07-22T01:14:49.438Z,987.865
2023-07-22T01:16:50.194Z,987.818
2023-07-22T01:18:50.002Z,987.880
2023-07-22T01:20:49.632Z,987.880
2023-07-22T01:24:49.736Z,987.917
2023-07-22T01:26:49.388Z,987.930
2023-07-22T01:28:50.042Z,987.922
2023-07-22T01:30:49.681Z,987.922
2023-07-22T01:32:49.436Z,987.921
2023-07-22T01:34:50.138Z,987.866
2023-07-22T01:36:49.785Z,987.876
2023-07-22T01:38:49.403Z,987.790
2023-07-22T01:40:50.001Z,987.943
2023-07-22T01:42:49.580Z,987.867
2023-07-22T01:44:50.158Z,987.750
2023-07-22T01:46:49.718Z,987.744
2023-07-22T01:48:49.411Z,987.783
2023-07-22T01:50:49.992Z,987.752
2023-07-22T01:52:49.644Z,987.845
2023-07-22T01:54:50.299Z,987.776
2023-07-22T01:56:49.883Z,987.801
2023-07-22T01:58:49.554Z,987.854
2023-07-22T02:00:50.108Z,987.852
2023-07-22T02:02:49.861Z,987.854
2023-07-22T02:04:49.653Z,987.819
2023-07-22T02:06:49.400Z,987.785
2023-07-22T02:08:50.056Z,987.815
2023-07-22T02:10:49.846Z,987.827
2023-07-22T02:12:49.428Z,987.827
2023-07-22T02:14:50.131Z,987.862
2023-07-22T02:16:49.767Z,987.810
2023-07-22T02:18:49.388Z,987.788
2023-07-22T02:20:50.026Z,987.873
2023-07-22T02:22:49.640Z,987.867
2023-07-22T02:24:50.328Z,987.912
2023-07-22T02:26:50.086Z,987.921
2023-07-22T02:28:49.646Z,987.865
2023-07-22T02:30:50.218Z,987.865
2023-07-22T02:32:49.860Z,987.961
2023-07-22T02:34:49.635Z,987.969
2023-07-22T02:36:50.316Z,987.953
2023-07-22T02:38:49.881Z,987.978
2023-07-22T02:40:49.483Z,988.098
2023-07-22T02:42:50.078Z,988.186
2023-07-22T02:44:49.694Z,988.158
2023-07-22T02:46:49.390Z,988.086
2023-07-22T02:48:50.080Z,988.064
2023-07-22T02:50:49.671Z,988.027
2023-07-22T02:52:50.297Z,988.015
2023-07-22T02:54:49.917Z,988.104
2023-07-22T02:56:49.527Z,988.076
2023-07-22T02:58:50.092Z,988.093
2023-07-22T03:00:49.821Z,988.006
2023-07-22T03:02:49.436Z,988.098
2023-07-22T03:04:50.132Z,988.082
2023-07-22T03:06:49.787Z,988.082
2023-07-22T03:08:49.366Z,988.066
2023-07-22T03:10:49.962Z,988.068
2023-07-22T03:12:49.539Z,988.030
2023-07-22T03:14:50.144Z,988.070
2023-07-22T03:16:49.713Z,988.076
2023-07-22T03:18:50.365Z,988.148
2023-07-22T03:20:49.947Z,988.148
2023-07-22T03:22:49.586Z,988.120
2023-07-22T03:24:50.196Z,988.120
2023-07-22T03:26:49.923Z,988.168
2023-07-22T03:28:49.576Z,988.187
2023-07-22T03:30:50.158Z,988.203
2023-07-22T03:32:49.771Z,988.249
2023-07-22T03:34:49.453Z,988.248
2023-07-22T03:36:50.089Z,988.266
2023-07-22T03:38:49.738Z,988.273
2023-07-22T03:40:50.304Z,988.268
2023-07-22T03:42:49.931Z,988.203
2023-07-22T03:44:49.549Z,988.259
2023-07-22T03:46:50.184Z,988.262
2023-07-22T03:48:49.812Z,988.352
2023-07-22T03:50:50.840Z,988.302
2023-07-22T03:52:49.488Z,988.412
2023-07-22T03:54:50.153Z,988.405
2023-07-22T03:56:49.782Z,988.408
2023-07-22T03:58:51.471Z,988.419
2023-07-22T04:00:49.575Z,988.467
2023-07-22T04:02:50.258Z,988.552
2023-07-22T04:04:49.898Z,988.423
2023-07-22T04:06:49.510Z,988.387
2023-07-22T04:08:50.126Z,988.330
2023-07-22T04:10:49.699Z,988.319
2023-07-22T04:12:50.259Z,988.370
2023-07-22T04:14:49.818Z,988.412
2023-07-22T04:16:49.437Z,988.445
2023-07-22T04:18:50.031Z,988.482
2023-07-22T04:20:49.628Z,988.494
2023-07-22T04:22:50.202Z,988.529
2023-07-22T04:24:50.147Z,988.482
2023-07-22T04:26:50.138Z,988.440
2023-07-22T04:28:49.755Z,988.443
2023-07-22T04:30:50.337Z,988.440
2023-07-22T04:32:49.993Z,988.482
2023-07-22T04:34:49.681Z,988.441
2023-07-22T04:36:50.289Z,988.613
2023-07-22T04:38:49.900Z,988.584
2023-07-22T04:40:49.484Z,988.558
2023-07-22T04:42:50.066Z,988.652
2023-07-22T04:44:49.665Z,988.666
2023-07-22T04:46:50.307Z,988.674
2023-07-22T04:48:49.964Z,988.653
2023-07-22T04:50:49.557Z,988.612
2023-07-22T04:52:50.201Z,988.704
2023-07-22T04:54:49.795Z,988.764
2023-07-22T04:56:49.375Z,988.785
2023-07-22T04:58:49.999Z,988.785
2023-07-22T05:00:49.686Z,988.802
2023-07-22T05:02:50.522Z,988.713
2023-07-22T05:04:50.278Z,988.732
2023-07-22T05:06:49.902Z,988.795
2023-07-22T05:08:49.510Z,988.795
2023-07-22T05:10:50.046Z,988.830
2023-07-22T05:12:49.656Z,988.835
2023-07-22T05:14:50.269Z,988.798
2023-07-22T05:16:49.863Z,988.866
2023-07-22T05:18:49.456Z,988.877
2023-07-22T05:20:50.086Z,989.012
2023-07-22T05:22:49.685Z,988.880
2023-07-22T05:24:50.292Z,988.919
2023-07-22T05:27:07.381Z,988.884
2023-07-22T05:28:49.417Z,988.884
2023-07-22T05:30:50.033Z,988.924
2023-07-22T05:32:49.682Z,988.970
2023-07-22T05:34:49.343Z,989.016
2023-07-22T05:36:50.026Z,989.047
2023-07-22T05:38:49.567Z,988.948
2023-07-22T05:40:50.199Z,989.125
2023-07-22T05:42:49.835Z,989.112
2023-07-22T05:44:49.475Z,989.086
2023-07-22T05:46:50.135Z,989.035
2023-07-22T05:48:49.875Z,989.038
2023-07-22T05:50:49.520Z,989.073
2023-07-22T05:52:50.114Z,989.107
2023-07-22T05:54:49.721Z,989.110
2023-07-22T05:56:50.263Z,989.100
2023-07-22T05:58:49.852Z,989.159
2023-07-22T06:00:49.476Z,989.163
2023-07-22T06:02:50.164Z,989.177
2023-07-22T06:04:49.841Z,989.280
2023-07-22T06:06:49.501Z,989.284
2023-07-22T06:08:50.089Z,989.206
2023-07-22T06:10:49.685Z,989.305
2023-07-22T06:12:50.320Z,989.295
2023-07-22T06:14:49.997Z,989.382
2023-07-22T06:16:49.744Z,989.334
2023-07-22T06:18:49.424Z,989.274
2023-07-22T06:20:50.002Z,989.265
2023-07-22T06:22:49.597Z,989.386
2023-07-22T06:24:50.227Z,989.433
2023-07-22T06:26:49.826Z,989.405
2023-07-22T06:28:49.423Z,989.515
2023-07-22T06:30:50.103Z,989.507
2023-07-22T06:32:49.694Z,989.538
2023-07-22T06:34:49.371Z,989.453
2023-07-22T06:36:50.026Z,989.444
2023-07-22T06:38:49.642Z,989.495
2023-07-22T06:40:50.245Z,989.518
2023-07-22T06:42:49.932Z,989.572
2023-07-22T06:44:49.529Z,989.484
2023-07-22T06:46:50.131Z,989.599
2023-07-22T06:48:49.793Z,989.675
2023-07-22T06:50:49.410Z,989.666
2023-07-22T06:52:50.026Z,989.637
2023-07-22T06:54:49.633Z,989.540
2023-07-22T06:56:50.238Z,989.679
2023-07-22T06:58:49.914Z,989.730
2023-07-22T07:00:49.442Z,989.677
2023-07-22T07:02:50.117Z,989.594
2023-07-22T07:04:49.798Z,989.603
2023-07-22T07:06:49.377Z,989.630
2023-07-22T07:08:50.107Z,989.604
2023-07-22T07:10:49.680Z,989.803
2023-07-22T07:12:50.241Z,989.642
2023-07-22T07:14:49.813Z,989.665
2023-07-22T07:16:49.486Z,989.620
2023-07-22T07:18:50.055Z,989.670
2023-07-22T07:20:49.603Z,989.670
2023-07-22T07:22:50.160Z,989.648
2023-07-22T07:24:49.789Z,989.600
2023-07-22T07:26:49.450Z,989.733
2023-07-22T07:28:50.055Z,989.781
2023-07-22T07:30:49.718Z,989.759
2023-07-22T07:32:49.365Z,989.805
2023-07-22T07:34:50.115Z,989.764
2023-07-22T07:36:49.726Z,989.844
2023-07-22T07:38:50.325Z,989.823
2023-07-22T07:40:49.940Z,989.886
2023-07-22T07:42:49.596Z,989.890
2023-07-22T07:44:50.215Z,989.941
2023-07-22T07:46:49.878Z,989.869
2023-07-22T07:48:49.478Z,989.936
2023-07-22T07:50:50.108Z,990.010
2023-07-22T07:52:49.703Z,989.969
2023-07-22T07:54:50.320Z,989.987
2023-07-22T07:56:49.924Z,989.955
2023-07-22T07:58:49.557Z,990.036
2023-07-22T08:00:50.109Z,989.959
2023-07-22T08:02:49.792Z,989.978
2023-07-22T08:04:49.521Z,989.980
2023-07-22T08:06:50.290Z,990.057
2023-07-22T08:08:49.931Z,989.974
2023-07-22T08:10:49.577Z,989.999
2023-07-22T08:12:50.244Z,990.019
2023-07-22T08:14:49.868Z,990.053
2023-07-22T08:16:49.539Z,990.062
2023-07-22T08:18:50.149Z,989.998
2023-07-22T08:20:49.758Z,990.010
2023-07-22T08:22:49.391Z,989.959
2023-07-22T08:24:50.244Z,990.031
2023-07-22T08:26:49.853Z,990.052
2023-07-22T08:28:49.475Z,989.985
2023-07-22T08:30:50.037Z,990.005
2023-07-22T08:32:49.724Z,990.069
2023-07-22T08:34:49.361Z,990.108
2023-07-22T08:36:50.057Z,989.981
2023-07-22T08:38:49.697Z,990.018
2023-07-22T08:40:50.336Z,990.002
2023-07-22T08:42:49.337Z,990.024
2023-07-22T08:44:49.900Z,990.040
2023-07-22T08:46:49.553Z,990.062
2023-07-22T08:48:50.175Z,990.063
2023-07-22T08:50:49.794Z,990.063
2023-07-22T08:52:49.444Z,990.062
2023-07-22T08:54:50.092Z,990.064
2023-07-22T08:56:49.757Z,990.028
2023-07-22T08:58:49.373Z,989.989
2023-07-22T09:00:49.994Z,990.049
2023-07-22T09:02:49.729Z,990.002
2023-07-22T09:04:49.422Z,990.055
2023-07-22T09:06:50.081Z,990.133
2023-07-22T09:08:49.755Z,990.031
2023-07-22T09:10:49.365Z,990.047
2023-07-22T09:12:50.019Z,989.969
2023-07-22T09:14:49.686Z,990.065
2023-07-22T09:16:50.289Z,990.064
2023-07-22T09:18:49.961Z,990.064
2023-07-22T09:20:49.579Z,990.048
2023-07-22T09:22:56.237Z,990.046
2023-07-22T09:24:49.742Z,990.051
2023-07-22T09:26:49.448Z,990.048
2023-07-22T09:28:50.060Z,990.001
2023-07-22T09:30:49.723Z,990.088
2023-07-22T09:32:50.390Z,989.961
2023-07-22T09:34:50.062Z,989.969
2023-07-22T09:36:49.677Z,989.966
2023-07-22T09:38:50.253Z,990.016
2023-07-22T09:40:49.885Z,989.973
2023-07-22T09:42:49.526Z,989.973
2023-07-22T09:44:50.109Z,989.973
2023-07-22T09:46:49.819Z,989.983
2023-07-22T09:48:49.733Z,989.950
2023-07-22T09:50:49.503Z,989.983
2023-07-22T09:52:50.084Z,989.983
2023-07-22T09:54:49.765Z,989.968
2023-07-22T09:56:49.472Z,989.909
2023-07-22T09:58:50.010Z,989.928
2023-07-22T10:00:49.637Z,989.823
2023-07-22T10:02:50.349Z,989.893
2023-07-22T10:04:50.011Z,989.884
2023-07-22T10:06:49.629Z,989.812
2023-07-22T10:08:50.185Z,989.874
2023-07-22T10:10:49.780Z,989.863
2023-07-22T10:12:49.418Z,989.906
2023-07-22T10:14:49.988Z,989.939
2023-07-22T10:16:49.641Z,989.870
2023-07-22T10:18:50.259Z,989.774
2023-07-22T10:20:49.893Z,989.813
2023-07-22T10:22:49.531Z,989.737
2023-07-22T10:24:50.236Z,989.703
2023-07-22T10:26:50.432Z,989.727
2023-07-22T10:28:50.284Z,989.653
2023-07-22T10:30:49.958Z,989.752
2023-07-22T10:32:49.666Z,989.677
2023-07-22T10:34:49.349Z,989.645
2023-07-22T10:36:49.994Z,989.618
2023-07-22T10:38:49.601Z,989.573
2023-07-22T10:40:50.223Z,989.548
2023-07-22T10:42:49.873Z,989.548
2023-07-22T10:44:50.754Z,989.566
2023-07-22T10:46:50.187Z,989.551
2023-07-22T10:48:49.938Z,989.453
2023-07-22T10:50:49.539Z,989.514
2023-07-22T10:52:50.192Z,989.499
2023-07-22T10:54:49.915Z,989.531
2023-07-22T10:56:51.179Z,989.446
2023-07-22T10:58:49.974Z,989.431
2023-07-22T11:00:49.567Z,989.476
2023-07-22T11:02:50.274Z,989.487
2023-07-22T11:04:56.460Z,989.479
2023-07-22T11:06:49.646Z,989.479
2023-07-22T11:08:50.274Z,989.479
2023-07-22T11:10:49.918Z,989.427
2023-07-22T11:12:49.565Z,989.423
2023-07-22T11:14:50.214Z,989.470
2023-07-22T11:16:49.986Z,989.470
2023-07-22T11:18:49.636Z,989.433
2023-07-22T11:20:50.206Z,989.451
2023-07-22T11:22:49.863Z,989.351
2023-07-22T11:24:49.559Z,989.403
2023-07-22T11:26:50.158Z,989.384
2023-07-22T11:28:49.774Z,989.380
2023-07-22T11:30:49.388Z,989.380
2023-07-22T11:32:51.902Z,989.312
2023-07-22T11:34:49.670Z,989.345
2023-07-22T11:36:50.273Z,989.421
2023-07-22T11:38:49.853Z,989.438
2023-07-22T11:40:49.426Z,989.347
2023-07-22T11:42:49.970Z,989.312
2023-07-22T11:44:49.550Z,989.343
2023-07-22T11:46:50.199Z,989.302
2023-07-22T11:48:49.790Z,989.229
2023-07-22T11:50:49.392Z,989.212
2023-07-22T11:52:49.968Z,989.202
2023-07-22T11:54:49.614Z,989.272
2023-07-22T11:56:50.228Z,989.170
2023-07-22T11:58:49.843Z,989.151
2023-07-22T12:01:00.730Z,989.110
2023-07-22T12:02:49.930Z,989.099
2023-07-22T12:04:49.569Z,989.006
2023-07-22T12:06:50.227Z,988.946
2023-07-22T12:08:49.864Z,989.010
2023-07-22T12:10:49.487Z,988.992
2023-07-22T12:12:50.059Z,988.979
2023-07-22T12:14:49.667Z,988.936
2023-07-22T12:16:50.266Z,989.025
2023-07-22T12:18:49.901Z,988.996
2023-07-22T12:20:49.542Z,988.983
2023-07-22T12:22:50.155Z,988.876
2023-07-22T12:24:49.798Z,988.871
2023-07-22T12:26:49.455Z,988.833
2023-07-22T12:28:50.070Z,989.009
2023-07-22T12:30:49.662Z,988.945
2023-07-22T12:32:50.502Z,988.909
2023-07-22T12:34:50.302Z,988.861
2023-07-22T12:36:50.035Z,988.856
2023-07-22T12:38:49.669Z,988.828
2023-07-22T12:40:49.355Z,988.759
2023-07-22T12:42:50.002Z,988.823
2023-07-22T12:44:49.594Z,988.717
2023-07-22T12:46:50.206Z,988.770
2023-07-22T12:48:49.878Z,988.718
2023-07-22T12:50:49.519Z,988.633
2023-07-22T12:52:50.155Z,988.694
2023-07-22T12:54:49.758Z,988.656
2023-07-22T12:56:49.394Z,988.601
2023-07-22T12:58:50.046Z,988.620
2023-07-22T13:00:49.692Z,988.583
2023-07-22T13:02:50.354Z,988.645
2023-07-22T13:04:50.055Z,988.592
2023-07-22T13:06:49.714Z,988.593
2023-07-22T13:08:49.365Z,988.658
2023-07-22T13:10:49.978Z,988.554
2023-07-22T13:12:49.617Z,988.484
2023-07-22T13:14:50.314Z,988.441
2023-07-22T13:16:49.989Z,988.536
2023-07-22T13:18:49.629Z,988.417
2023-07-22T13:20:50.318Z,988.412
2023-07-22T13:22:49.939Z,988.356
2023-07-22T13:24:49.650Z,988.353
2023-07-22T13:26:50.333Z,988.380
2023-07-22T13:28:49.908Z,988.392
2023-07-22T13:30:49.610Z,988.364
2023-07-22T13:32:49.420Z,988.345
2023-07-22T13:34:50.088Z,988.330
2023-07-22T13:36:49.723Z,988.413
2023-07-22T13:38:49.382Z,988.319
2023-07-22T13:40:50.096Z,988.286
2023-07-22T13:42:49.708Z,988.288
2023-07-22T13:44:50.342Z,988.292
2023-07-22T13:46:49.955Z,988.331
2023-07-22T13:48:49.671Z,988.327
2023-07-22T13:50:50.304Z,988.360
2023-07-22T13:52:49.875Z,988.260
2023-07-22T13:54:49.456Z,988.169
2023-07-22T13:56:50.062Z,988.173
2023-07-22T13:58:49.657Z,988.202
2023-07-22T14:00:50.295Z,988.173
2023-07-22T14:02:50.101Z,988.160
2023-07-22T14:04:49.939Z,988.222
2023-07-22T14:06:49.546Z,988.264
2023-07-22T14:08:50.202Z,988.233
2023-07-22T14:10:49.887Z,988.212
2023-07-22T14:12:49.486Z,988.150
2023-07-22T14:14:50.150Z,988.101
2023-07-22T14:16:49.765Z,988.125
2023-07-22T14:18:49.524Z,988.167
2023-07-22T14:20:50.282Z,988.190
2023-07-22T14:22:49.932Z,988.149
2023-07-22T14:24:49.661Z,988.169
2023-07-22T14:26:49.400Z,988.169
2023-07-22T14:28:50.089Z,988.121
2023-07-22T14:30:49.719Z,988.072
2023-07-22T14:32:49.388Z,988.046
2023-07-22T14:34:50.083Z,987.908
2023-07-22T14:36:49.713Z,988.023
2023-07-22T14:38:50.306Z,987.898
2023-07-22T14:40:49.954Z,988.044
2023-07-22T14:42:49.657Z,987.948
2023-07-22T14:44:50.248Z,987.944
2023-07-22T14:46:50.134Z,987.829
2023-07-22T14:48:49.811Z,987.850
2023-07-22T14:50:49.439Z,987.798
2023-07-22T14:52:50.069Z,987.718
2023-07-22T14:54:49.731Z,987.664
2023-07-22T14:56:49.398Z,987.727
2023-07-22T14:58:50.033Z,987.784
2023-07-22T15:00:49.693Z,987.813
2023-07-22T15:02:50.386Z,987.714
2023-07-22T15:04:50.146Z,987.747
2023-07-22T15:06:49.712Z,987.747
2023-07-22T15:08:50.328Z,987.760
2023-07-22T15:10:50.002Z,987.705
2023-07-22T15:14:49.671Z,987.750
2023-07-22T15:16:50.362Z,987.785
2023-07-22T15:18:50.049Z,987.846
2023-07-22T15:20:49.681Z,987.712
2023-07-22T15:22:50.329Z,987.684
2023-07-22T15:24:50.003Z,987.640
2023-07-22T15:26:49.632Z,987.617
2023-07-22T15:28:50.195Z,987.623
2023-07-22T15:30:49.898Z,987.625
2023-07-22T15:32:49.646Z,987.596
2023-07-22T15:34:50.329Z,987.645
2023-07-22T15:36:49.946Z,987.625
2023-07-22T15:38:49.577Z,987.717
2023-07-22T15:40:50.254Z,987.717
2023-07-22T15:42:49.851Z,987.661
2023-07-22T15:44:49.506Z,987.629
2023-07-22T15:46:50.088Z,987.612
2023-07-22T15:48:49.695Z,987.515
2023-07-22T15:50:49.360Z,987.515
2023-07-22T15:52:49.937Z,987.523
2023-07-22T15:54:49.558Z,987.470
2023-07-22T15:56:50.298Z,987.549
2023-07-22T15:58:49.878Z,987.477
2023-07-22T16:00:49.455Z,987.540
2023-07-22T16:02:50.212Z,987.507
2023-07-22T16:04:49.930Z,987.459
2023-07-22T16:06:49.545Z,987.329
2023-07-22T16:08:50.096Z,987.252
2023-07-22T16:10:49.715Z,987.302
2023-07-22T16:12:50.289Z,987.316
2023-07-22T16:14:49.991Z,987.272
2023-07-22T16:16:49.636Z,987.384
2023-07-22T16:18:50.319Z,987.344
2023-07-22T16:20:49.953Z,987.236
2023-07-22T16:22:49.573Z,987.128
2023-07-22T16:24:50.314Z,987.224
2023-07-22T16:26:50.030Z,987.184
2023-07-22T16:28:49.597Z,987.151
2023-07-22T16:30:50.159Z,987.146
2023-07-22T16:32:49.815Z,987.151
2023-07-22T16:34:49.545Z,987.142
2023-07-22T16:36:50.216Z,987.143
2023-07-22T16:38:49.914Z,987.110
2023-07-22T16:40:49.545Z,987.190
2023-07-22T16:42:51.606Z,987.227
2023-07-22T16:44:50.293Z,987.337
2023-07-22T16:46:49.915Z,987.253
2023-07-22T16:48:49.625Z,987.193
2023-07-22T16:50:50.239Z,987.324
2023-07-22T16:52:49.860Z,987.247
2023-07-22T16:54:49.537Z,987.214
2023-07-22T16:56:50.198Z,987.226
2023-07-22T16:58:49.779Z,987.250
2023-07-22T17:00:49.449Z,987.224
2023-07-22T17:02:50.107Z,987.219
2023-07-22T17:04:49.830Z,987.268
2023-07-22T17:06:49.536Z,987.260
2023-07-22T17:08:50.157Z,987.213
2023-07-22T17:10:49.727Z,987.160
2023-07-22T17:12:49.358Z,987.226
2023-07-22T17:14:49.965Z,987.256
2023-07-22T17:16:49.608Z,987.222
2023-07-22T17:18:50.210Z,987.222
2023-07-22T17:20:49.861Z,987.156
2023-07-22T17:22:49.473Z,987.141
2023-07-22T17:24:50.156Z,987.148
2023-07-22T17:26:49.914Z,987.144
2023-07-22T17:28:49.557Z,987.070
2023-07-22T17:30:50.120Z,987.141
2023-07-22T17:32:50.030Z,987.125
2023-07-22T17:34:49.813Z,987.144
2023-07-22T17:36:49.429Z,987.212
2023-07-22T17:38:50.039Z,987.128
2023-07-22T17:40:49.591Z,987.053
2023-07-22T17:42:50.143Z,987.080
2023-07-22T17:44:49.795Z,987.013
2023-07-22T17:46:49.390Z,987.140
2023-07-22T17:48:49.998Z,987.087
2023-07-22T17:50:49.689Z,987.056
2023-07-22T17:52:49.362Z,986.970
2023-07-22T17:54:49.962Z,987.013
2023-07-22T17:56:49.576Z,987.024
2023-07-22T17:58:50.181Z,987.003
2023-07-22T18:00:49.867Z,986.931
2023-07-22T18:02:49.541Z,986.981
2023-07-22T18:04:50.245Z,986.899
2023-07-22T18:06:49.906Z,986.988
2023-07-22T18:08:49.527Z,986.991
2023-07-22T18:10:50.139Z,986.895
2023-07-22T18:12:49.786Z,986.980
2023-07-22T18:14:49.402Z,986.914
2023-07-22T18:16:50.060Z,986.893
2023-07-22T18:18:49.774Z,986.907
2023-07-22T18:20:50.333Z,986.877
2023-07-22T18:22:49.936Z,986.865
2023-07-22T18:24:49.624Z,986.913
2023-07-22T18:26:50.229Z,986.892
2023-07-22T18:28:49.881Z,986.847
2023-07-22T18:30:49.633Z,986.847
2023-07-22T18:32:50.287Z,986.868
2023-07-22T18:34:49.948Z,986.884
2023-07-22T18:36:49.598Z,986.961
2023-07-22T18:38:50.188Z,987.033
2023-07-22T18:40:49.856Z,987.058
2023-07-22T18:42:49.462Z,986.983
2023-07-22T18:44:50.063Z,986.976
2023-07-22T18:46:49.800Z,987.080
2023-07-22T18:48:49.381Z,987.092
2023-07-22T18:50:49.961Z,987.080
2023-07-22T18:52:49.571Z,987.012
2023-07-22T18:54:50.217Z,987.080
2023-07-22T18:56:49.796Z,987.138
2023-07-22T18:58:49.373Z,987.086
2023-07-22T19:00:50.078Z,987.125
2023-07-22T19:02:49.716Z,987.174
2023-07-22T19:04:49.452Z,987.167
2023-07-22T19:06:50.221Z,987.082
2023-07-22T19:08:49.858Z,987.184
2023-07-22T19:10:49.526Z,987.145
2023-07-22T19:12:50.143Z,987.175
2023-07-22T19:14:49.730Z,987.187
2023-07-22T19:16:50.945Z,987.138
2023-07-22T19:18:49.707Z,987.260
2023-07-22T19:20:49.534Z,987.287
2023-07-22T19:22:50.178Z,987.275
2023-07-22T19:24:50.032Z,987.261
2023-07-22T19:26:49.723Z,987.286
2023-07-22T19:28:49.440Z,987.255
2023-07-22T19:30:50.318Z,987.257
2023-07-22T19:32:49.945Z,987.298
2023-07-22T19:34:49.594Z,987.308
2023-07-22T19:36:50.287Z,987.348
2023-07-22T19:38:49.931Z,987.295
2023-07-22T19:40:49.607Z,987.232
2023-07-22T19:42:50.144Z,987.327
2023-07-22T19:44:49.772Z,987.352
2023-07-22T19:46:49.385Z,987.387
2023-07-22T19:48:49.988Z,987.368
2023-07-22T19:50:49.524Z,987.380
2023-07-22T19:52:50.142Z,987.282
2023-07-22T19:54:49.798Z,987.256
2023-07-22T19:56:49.410Z,987.350
2023-07-22T19:58:49.987Z,987.249
2023-07-22T20:00:49.618Z,987.328
2023-07-22T20:02:50.282Z,987.326
2023-07-22T20:04:49.959Z,987.317
2023-07-22T20:06:49.555Z,987.302
2023-07-22T20:08:50.289Z,987.295
2023-07-22T20:10:49.851Z,987.284
2023-07-22T20:12:49.465Z,987.292
2023-07-22T20:14:50.151Z,987.342
2023-07-22T20:16:49.742Z,987.283
2023-07-22T20:18:49.379Z,987.275
2023-07-22T20:20:49.987Z,987.251
2023-07-22T20:22:50.183Z,987.346
2023-07-22T20:24:49.844Z,987.354
2023-07-22T20:26:49.511Z,987.354
2023-07-22T20:28:50.150Z,987.248
2023-07-22T20:30:49.861Z,987.245
2023-07-22T20:32:49.553Z,987.253
2023-07-22T20:34:50.232Z,987.269
2023-07-22T20:36:49.869Z,987.226
2023-07-22T20:38:49.519Z,987.212
2023-07-22T20:40:50.154Z,987.188
2023-07-22T20:42:49.719Z,987.197
2023-07-22T20:44:49.345Z,987.282
2023-07-22T20:46:50.034Z,987.193
2023-07-22T20:48:49.654Z,987.268
2023-07-22T20:50:50.333Z,987.230
2023-07-22T20:52:49.935Z,987.209
2023-07-22T20:54:49.624Z,987.181
2023-07-22T20:56:50.254Z,987.282
2023-07-22T20:58:49.889Z,987.214
2023-07-22T21:00:49.550Z,987.247
2023-07-22T21:02:50.308Z,987.258
2023-07-22T21:04:50.089Z,987.308
2023-07-22T21:06:49.694Z,987.209
2023-07-22T21:08:50.310Z,987.209
2023-07-22T21:10:49.938Z,987.180
2023-07-22T21:12:49.591Z,987.219
2023-07-22T21:14:50.221Z,987.264
2023-07-22T21:16:49.838Z,987.223
2023-07-22T21:18:49.356Z,987.261
2023-07-22T21:20:49.952Z,987.223
2023-07-22T21:22:49.652Z,987.211
2023-07-22T21:24:50.314Z,987.165
2023-07-22T21:26:50.024Z,987.186
2023-07-22T21:28:49.586Z,987.158
2023-07-22T21:30:50.193Z,987.278
2023-07-22T21:32:49.902Z,987.215
2023-07-22T21:34:49.657Z,987.256
2023-07-22T21:36:50.217Z,987.242
2023-07-22T21:38:49.826Z,987.196
2023-07-22T21:40:49.471Z,987.208
2023-07-22T21:42:50.095Z,987.176
2023-07-22T21:44:49.750Z,987.179
2023-07-22T21:46:49.604Z,987.151
2023-07-22T21:48:50.257Z,987.156
2023-07-22T21:50:49.869Z,987.117
2023-07-22T21:52:49.519Z,987.192
2023-07-22T21:54:50.137Z,987.168
2023-07-22T21:56:49.826Z,987.191
2023-07-22T21:58:49.505Z,987.121
2023-07-22T22:00:50.222Z,987.178
2023-07-22T22:02:49.919Z,987.175
2023-07-22T22:04:49.654Z,987.225
2023-07-22T22:06:50.326Z,987.059
2023-07-22T22:08:49.946Z,987.153
2023-07-22T22:10:49.629Z,987.002
2023-07-22T22:12:50.183Z,987.101
2023-07-22T22:14:49.784Z,987.220
2023-07-22T22:16:49.466Z,987.125
2023-07-22T22:18:50.101Z,987.102
2023-07-22T22:20:49.693Z,987.079
2023-07-22T22:22:50.298Z,987.119
2023-07-22T22:24:50.001Z,987.141
2023-07-22T22:26:49.801Z,987.146
2023-07-22T22:28:49.422Z,987.182
2023-07-22T22:30:50.077Z,987.169
2023-07-22T22:32:49.772Z,987.171
2023-07-22T22:34:49.511Z,987.127
2023-07-22T22:36:50.183Z,987.054
2023-07-22T22:38:49.785Z,987.094
2023-07-22T22:40:49.432Z,987.139
2023-07-22T22:42:50.105Z,987.184
2023-07-22T22:44:49.717Z,987.174
2023-07-22T22:46:49.405Z,987.058
2023-07-22T22:48:50.083Z,987.178
2023-07-22T22:50:49.726Z,987.117
2023-07-22T22:52:49.404Z,987.140
2023-07-22T22:54:49.988Z,987.174
2023-07-22T22:56:49.615Z,987.127
2023-07-22T22:58:50.232Z,987.064
2023-07-22T23:00:49.872Z,987.115
2023-07-22T23:02:49.495Z,987.132
2023-07-22T23:04:50.205Z,987.100
2023-07-22T23:06:49.851Z,987.132
2023-07-22T23:08:49.521Z,987.110
2023-07-22T23:10:50.236Z,987.183
2023-07-22T23:12:49.854Z,987.113
2023-07-22T23:14:49.466Z,987.094
2023-07-22T23:16:50.131Z,987.175
2023-07-22T23:18:49.754Z,987.113
2023-07-22T23:20:50.335Z,987.075
2023-07-22T23:22:50.001Z,987.080
2023-07-22T23:24:49.686Z,987.047
2023-07-22T23:26:49.367Z,987.134
2023-07-22T23:28:50.033Z,987.150
2023-07-22T23:30:49.644Z,987.123
2023-07-22T23:32:50.317Z,987.111
2023-07-22T23:34:50.029Z,987.041
2023-07-22T23:36:49.652Z,987.053
2023-07-22T23:38:49.325Z,987.116
2023-07-22T23:40:49.940Z,987.044
2023-07-22T23:42:49.608Z,986.963
2023-07-22T23:44:50.283Z,986.975
2023-07-22T23:46:49.949Z,986.962
2023-07-22T23:48:49.508Z,986.913
2023-07-22T23:50:50.172Z,986.913
2023-07-22T23:52:49.819Z,986.887
2023-07-22T23:54:49.493Z,986.888
2023-07-22T23:56:50.188Z,986.898
2023-07-22T23:58:49.854Z,986.836
